Terminal Aerodrome Forecast
Issued by NWS Sterling, VA

Current Version | Previous Version | Graphics & Text | Print | Product List | Glossary On
Versions: 1 2 3 4 5 6 7 8 9 10 11 12 13 14 15 16 17 18 19 20 21 22
000
FTUS41 KLWX 181700
TAFDCA
TAF
KDCA 181735Z 1818/1918 29016G24KT P6SM SCT060 SCT080
     FM182300 31012G20KT P6SM FEW040 BKN070
     FM190300 30010G18KT P6SM SCT060
     FM191500 31011G23KT P6SM SCT250=

USA.gov is the U.S. government's official web portal to all federal, state and local government web resources and services.